Hotchkiss, Canada
Current Conditions -  °F | °C
As of 9:00 AM on Friday 24 Oct 2014 (Local Time) from CYPE Reporting Station
Overcast Overcast  
Wind Chill: 27°   Ceiling: 3000
Heat Index: 32°   Visibility: 15mi
Dew Point: 32°   Wind: 5mph
Humidity: 100%   Direction: 240°WSW
Pressure: 29.75"   Gusts: NA
Location:  57.06°N, 117.55°W
Report Text: CYPE 241500Z 24004KT 15SM FEW005 BKN030 OVC050 00/M00 A2975 RMK SF1SC6SC1 SLP100
Loading
Personal Weather Stations






























Interactive Weather Map
Tropical Storm Tracking
New forecast layout! Learn more

10-Day Weather Forecast

Advertisements
Track Severe Weather on mobile